Golden, Canada
Current Conditions -  °F | °C
As of 1:09 PM on Friday 28 Nov 2014 (Local Time) from CYGE Reporting Station
Light Snow Light Snow  
Wind Chill:   Ceiling: 20000
Heat Index: 18°   Visibility: 15mi
Dew Point: 10°   Wind: 10mph
Humidity: 73%   Direction: 340°NNW
Pressure: 29.34"   Gusts: 17mph
Location:  51.29°N, 116.96°W
Report Text: CYGE 282009Z 34009G15KT 310V010 15SM -SN FEW020 SCT065 BKN200 M08/M12 A2934 RMK ST1SC2CI4 SLP973
Loading
Personal Weather Stations






























Interactive Weather Map New forecast layout! Learn more

10-Day Weather Forecast

Advertisements
Track Severe Weather on mobile